createdAt,value
2023-03-11T00:00:22.500Z,87.24
2023-03-11T00:03:24.521Z,87.26
2023-03-11T00:06:04.251Z,87.29
2023-03-11T00:08:41.400Z,87.33
2023-03-11T00:11:17.848Z,87.35
2023-03-11T00:13:54.217Z,87.35
2023-03-11T00:16:30.758Z,87.35
2023-03-11T00:19:07.246Z,87.38
2023-03-11T00:21:43.729Z,87.44
2023-03-11T00:24:20.052Z,87.56
2023-03-11T00:26:56.346Z,87.49
2023-03-11T00:29:32.721Z,87.51
2023-03-11T00:32:10.705Z,87.18
2023-03-11T00:34:47.396Z,87.01
2023-03-11T00:37:24.271Z,86.86
2023-03-11T00:40:00.633Z,86.78
2023-03-11T00:42:37.005Z,86.80
2023-03-11T00:45:15.879Z,86.76
2023-03-11T00:47:53.083Z,86.74
2023-03-11T00:50:33.719Z,86.68
2023-03-11T00:53:11.417Z,86.61
2023-03-11T00:55:47.841Z,86.59
2023-03-11T00:58:28.265Z,86.58
2023-03-11T01:01:10.382Z,86.53
2023-03-11T01:03:47.779Z,86.50
2023-03-11T01:06:26.176Z,86.45
2023-03-11T01:09:07.315Z,86.39
2023-03-11T01:11:43.743Z,86.36
2023-03-11T01:14:21.397Z,86.41
2023-03-11T01:16:58.012Z,86.43
2023-03-11T01:19:34.369Z,86.46
2023-03-11T01:22:12.170Z,86.42
2023-03-11T01:24:49.306Z,86.04
2023-03-11T01:27:25.733Z,86.09
2023-03-11T01:30:02.606Z,86.19
2023-03-11T01:32:39.391Z,86.35
2023-03-11T01:35:20.520Z,86.09
2023-03-11T01:37:57.329Z,86.04
2023-03-11T01:40:38.842Z,86.16
2023-03-11T01:43:59.543Z,86.19
2023-03-11T01:47:38.850Z,86.04
2023-03-11T01:50:18.450Z,85.71
2023-03-11T01:52:55.048Z,85.57
2023-03-11T01:55:34.441Z,85.21
2023-03-11T01:58:18.574Z,84.87
2023-03-11T02:00:57.847Z,84.36
2023-03-11T02:03:39.985Z,83.58
2023-03-11T02:06:19.090Z,83.30
2023-03-11T02:08:56.633Z,82.89
2023-03-11T02:11:35.527Z,82.61
2023-03-11T02:14:13.405Z,81.98
2023-03-11T02:16:50.468Z,81.34
2023-03-11T02:19:48.207Z,80.90
2023-03-11T02:22:26.049Z,80.57
2023-03-11T02:25:11.632Z,80.42
2023-03-11T02:27:54.183Z,79.83
2023-03-11T02:30:35.245Z,79.23
2023-03-11T02:33:13.713Z,78.46
2023-03-11T02:35:50.994Z,77.59
2023-03-11T02:38:27.752Z,77.36
2023-03-11T02:41:07.579Z,77.06
2023-03-11T02:43:48.078Z,77.00
2023-03-11T02:46:25.334Z,76.86
2023-03-11T02:49:03.128Z,76.49
2023-03-11T02:51:39.744Z,76.10
2023-03-11T02:54:16.573Z,75.63
2023-03-11T02:56:53.134Z,74.68
2023-03-11T02:59:29.701Z,74.49
2023-03-11T03:02:07.193Z,74.20
2023-03-11T03:04:43.758Z,74.03
2023-03-11T03:07:20.225Z,73.96
2023-03-11T03:09:56.764Z,73.61
2023-03-11T03:12:33.574Z,73.38
2023-03-11T03:15:13.299Z,73.36
2023-03-11T03:17:52.294Z,73.25
2023-03-11T03:20:29.221Z,72.78
2023-03-11T03:23:08.994Z,72.41
2023-03-11T03:25:48.822Z,72.12
2023-03-11T03:28:25.589Z,71.91
2023-03-11T03:31:10.856Z,71.44
2023-03-11T03:33:48.017Z,71.27
2023-03-11T03:36:25.016Z,70.98
2023-03-11T03:39:05.860Z,70.92
2023-03-11T03:41:44.255Z,70.89
2023-03-11T03:44:20.789Z,70.94
2023-03-11T03:46:57.340Z,70.80
2023-03-11T03:49:33.909Z,70.77
2023-03-11T03:52:11.608Z,70.79
2023-03-11T03:54:49.187Z,70.84
2023-03-11T03:57:25.614Z,70.81
2023-03-11T04:00:02.308Z,70.80
2023-03-11T04:02:39.366Z,70.81
2023-03-11T04:05:16.713Z,70.62
2023-03-11T04:07:53.935Z,70.57
2023-03-11T04:10:31.550Z,70.52
2023-03-11T04:13:08.604Z,70.62
2023-03-11T04:15:45.665Z,70.60
2023-03-11T04:18:22.955Z,70.54
2023-03-11T04:21:00.304Z,70.47
2023-03-11T04:23:37.764Z,70.39
2023-03-11T04:26:14.918Z,70.47
2023-03-11T04:28:51.284Z,70.32
2023-03-11T04:31:28.152Z,70.33
2023-03-11T04:34:05.218Z,70.21
2023-03-11T04:36:41.904Z,70.18
2023-03-11T04:39:19.208Z,70.13
2023-03-11T04:41:55.859Z,70.13
2023-03-11T04:44:35.780Z,70.21
2023-03-11T04:47:13.205Z,70.31
2023-03-11T04:49:50.280Z,70.35
2023-03-11T04:52:26.751Z,70.40
2023-03-11T04:55:03.406Z,70.47
2023-03-11T04:57:42.115Z,70.52
2023-03-11T05:00:25.196Z,70.56
2023-03-11T05:03:09.828Z,70.60
2023-03-11T05:05:49.165Z,70.56
2023-03-11T05:08:27.254Z,70.55
2023-03-11T05:11:04.287Z,70.53
2023-03-11T05:13:41.407Z,70.54
2023-03-11T05:16:18.012Z,70.50
2023-03-11T05:18:55.176Z,70.53
2023-03-11T05:21:32.466Z,70.57
2023-03-11T05:24:10.333Z,70.68
2023-03-11T05:26:48.538Z,70.83
2023-03-11T05:29:26.423Z,71.13
2023-03-11T05:32:03.292Z,71.57
2023-03-11T05:34:39.840Z,72.01
2023-03-11T05:37:17.534Z,72.55
2023-03-11T05:39:55.973Z,72.96
2023-03-11T05:42:32.704Z,73.53
2023-03-11T05:45:11.534Z,73.81
2023-03-11T05:47:48.219Z,74.24
2023-03-11T05:50:25.384Z,74.55
2023-03-11T05:53:02.190Z,74.74
2023-03-11T05:55:39.756Z,74.93
2023-03-11T05:58:16.480Z,75.24
2023-03-11T06:00:53.368Z,75.67
2023-03-11T06:03:29.690Z,75.77
2023-03-11T06:06:08.793Z,75.99
2023-03-11T06:08:49.939Z,76.11
2023-03-11T06:11:27.282Z,76.24
2023-03-11T06:14:03.837Z,76.41
2023-03-11T06:16:40.643Z,76.61
2023-03-11T06:19:18.002Z,76.63
2023-03-11T06:21:57.303Z,76.70
2023-03-11T06:24:34.003Z,76.80
2023-03-11T06:27:11.376Z,76.83
2023-03-11T06:29:52.675Z,77.00
2023-03-11T06:32:30.377Z,76.95
2023-03-11T06:35:08.375Z,76.96
2023-03-11T06:37:44.840Z,76.99
2023-03-11T06:40:21.905Z,77.13
2023-03-11T06:42:58.375Z,77.19
2023-03-11T06:45:35.809Z,77.15
2023-03-11T06:48:13.040Z,77.23
2023-03-11T06:50:56.619Z,77.24
2023-03-11T06:53:34.921Z,77.35
2023-03-11T06:56:15.501Z,77.46
2023-03-11T06:58:56.544Z,77.39
2023-03-11T07:01:34.272Z,77.54
2023-03-11T07:04:14.142Z,77.65
2023-03-11T07:06:50.847Z,77.81
2023-03-11T07:09:30.089Z,77.97
2023-03-11T07:12:08.144Z,78.27
2023-03-11T07:14:45.668Z,78.50
2023-03-11T07:17:22.697Z,78.68
2023-03-11T07:20:00.236Z,78.70
2023-03-11T07:22:36.553Z,78.76
2023-03-11T07:25:14.996Z,78.79
2023-03-11T07:27:51.252Z,78.76
2023-03-11T07:30:27.991Z,78.60
2023-03-11T07:33:04.865Z,78.30
2023-03-11T07:35:42.966Z,78.08
2023-03-11T07:38:19.835Z,77.78
2023-03-11T07:41:04.518Z,77.64
2023-03-11T07:43:43.034Z,77.59
2023-03-11T07:46:22.840Z,77.52
2023-03-11T07:48:59.457Z,77.30
2023-03-11T07:51:41.021Z,77.00
2023-03-11T07:54:17.861Z,76.80
2023-03-11T07:56:54.333Z,76.74
2023-03-11T07:59:31.030Z,76.54
2023-03-11T08:02:08.546Z,75.95
2023-03-11T08:04:45.403Z,75.38
2023-03-11T08:07:22.033Z,74.85
2023-03-11T08:09:58.956Z,74.23
2023-03-11T08:12:35.292Z,73.62
2023-03-11T08:15:14.711Z,73.54
2023-03-11T08:17:51.214Z,73.69
2023-03-11T08:20:28.213Z,73.73
2023-03-11T08:23:04.817Z,73.77
2023-03-11T08:25:44.567Z,73.65
2023-03-11T08:28:21.315Z,73.50
2023-03-11T08:30:57.881Z,73.56
2023-03-11T08:33:34.424Z,73.45
2023-03-11T08:36:12.199Z,73.21
2023-03-11T08:38:49.401Z,73.05
2023-03-11T08:41:26.771Z,73.14
2023-03-11T08:44:03.472Z,73.33
2023-03-11T08:46:42.006Z,73.37
2023-03-11T08:49:18.700Z,73.58
2023-03-11T08:51:55.630Z,73.58
2023-03-11T08:54:32.861Z,73.71
2023-03-11T08:57:09.780Z,73.79
2023-03-11T08:59:46.305Z,73.89
2023-03-11T09:02:22.781Z,73.95
2023-03-11T09:04:59.508Z,73.96
2023-03-11T09:07:36.334Z,74.05
2023-03-11T09:10:16.176Z,74.12
2023-03-11T09:12:52.835Z,74.13
2023-03-11T09:15:29.960Z,74.15
2023-03-11T09:18:09.133Z,74.20
2023-03-11T09:20:46.632Z,74.31
2023-03-11T09:23:23.505Z,74.34
2023-03-11T09:26:00.061Z,74.32
2023-03-11T09:28:37.045Z,74.36
2023-03-11T09:31:14.563Z,74.48
2023-03-11T09:33:52.847Z,74.44
2023-03-11T09:36:29.772Z,74.36
2023-03-11T09:39:07.034Z,74.29
2023-03-11T09:41:58.251Z,74.12
2023-03-11T09:44:38.510Z,74.11
2023-03-11T09:47:44.746Z,74.05
2023-03-11T09:50:45.286Z,73.73
2023-03-11T09:53:42.078Z,73.68
2023-03-11T09:56:23.306Z,73.78
2023-03-11T09:59:07.932Z,73.81
2023-03-11T10:01:49.174Z,73.91
2023-03-11T10:04:33.329Z,74.05
2023-03-11T10:07:22.233Z,74.10
2023-03-11T10:10:01.107Z,74.07
2023-03-11T10:12:56.149Z,73.77
2023-03-11T10:15:57.334Z,73.23
2023-03-11T10:19:03.710Z,72.85
2023-03-11T10:21:59.400Z,72.93
2023-03-11T10:25:07.173Z,72.64
2023-03-11T10:27:53.373Z,72.48
2023-03-11T10:30:36.993Z,72.40
2023-03-11T10:33:26.363Z,72.63
2023-03-11T10:36:10.582Z,72.90
2023-03-11T10:38:52.492Z,73.09
2023-03-11T10:41:39.119Z,73.45
2023-03-11T10:44:24.024Z,73.87
2023-03-11T10:47:00.795Z,74.11
2023-03-11T10:49:37.948Z,74.44
2023-03-11T10:52:15.084Z,74.76
2023-03-11T10:55:03.047Z,74.97
2023-03-11T10:57:42.962Z,75.13
2023-03-11T11:03:31.636Z,75.50
2023-03-11T11:06:23.614Z,75.76
2023-03-11T11:09:26.835Z,75.93
2023-03-11T11:12:17.826Z,76.05
2023-03-11T11:14:55.959Z,76.21
2023-03-11T11:28:44.720Z,76.84
2023-03-11T11:31:29.613Z,77.00
2023-03-11T11:34:24.066Z,77.27
2023-03-11T11:37:04.057Z,77.54
2023-03-11T11:39:52.695Z,77.84
2023-03-11T11:42:33.091Z,78.13
2023-03-11T11:45:25.445Z,78.31
2023-03-11T11:48:09.032Z,78.54
2023-03-11T11:50:53.080Z,78.78
2023-03-11T11:53:43.298Z,78.91
2023-03-11T11:56:19.776Z,79.03
2023-03-11T11:58:56.626Z,79.11
2023-03-11T12:01:51.270Z,79.29
2023-03-11T12:04:52.974Z,79.47
2023-03-11T12:07:55.874Z,79.82
2023-03-11T12:10:42.769Z,80.00
2023-03-11T12:14:03.201Z,80.29
2023-03-11T12:16:53.304Z,80.40
2023-03-11T12:19:46.401Z,80.52
2023-03-11T12:23:37.490Z,80.58
2023-03-11T12:26:24.034Z,80.64
2023-03-11T12:29:08.378Z,80.80
2023-03-11T12:31:47.071Z,80.77
2023-03-11T12:34:25.927Z,80.81
2023-03-11T12:37:14.699Z,80.96
2023-03-11T12:39:51.237Z,80.99
2023-03-11T12:42:41.929Z,81.01
2023-03-11T12:45:55.596Z,80.99
2023-03-11T12:48:46.159Z,80.99
2023-03-11T12:52:04.796Z,81.01
2023-03-11T12:54:43.619Z,81.06
2023-03-11T12:57:38.660Z,81.05
2023-03-11T13:00:56.003Z,81.03
2023-03-11T13:03:53.968Z,81.03
2023-03-11T13:07:40.829Z,81.01
2023-03-11T13:10:42.091Z,80.99
2023-03-11T13:13:43.785Z,81.05
2023-03-11T13:16:48.072Z,81.12
2023-03-11T13:19:53.920Z,81.11
2023-03-11T13:23:29.485Z,81.12
2023-03-11T13:26:42.256Z,81.05
2023-03-11T13:29:57.344Z,81.01
2023-03-11T13:33:07.456Z,80.67
2023-03-11T13:36:19.435Z,80.45
2023-03-11T13:39:40.327Z,80.23
2023-03-11T13:42:32.625Z,80.21
2023-03-11T13:45:23.546Z,80.28
2023-03-11T13:48:05.112Z,80.28
2023-03-11T13:50:48.357Z,80.31
2023-03-11T13:53:33.567Z,80.20
2023-03-11T13:56:23.277Z,80.16
2023-03-11T13:59:23.895Z,80.10
2023-03-11T14:02:05.251Z,80.12
2023-03-11T14:04:45.642Z,80.21
2023-03-11T14:07:31.879Z,80.22
2023-03-11T14:10:30.482Z,80.10
2023-03-11T14:13:21.994Z,80.06
2023-03-11T14:16:10.085Z,80.08
2023-03-11T14:18:49.612Z,80.18
2023-03-11T14:21:27.879Z,80.24
2023-03-11T14:24:05.719Z,80.31
2023-03-11T14:26:48.016Z,80.45
2023-03-11T14:29:32.604Z,80.56
2023-03-11T14:32:31.090Z,80.69
2023-03-11T14:35:24.439Z,80.90
2023-03-11T14:38:01.513Z,81.06
2023-03-11T14:40:42.895Z,81.16
2023-03-11T14:43:22.034Z,81.25
2023-03-11T14:46:00.275Z,81.31
2023-03-11T14:48:43.879Z,81.34
2023-03-11T14:51:26.665Z,81.35
2023-03-11T14:54:18.337Z,81.37
2023-03-11T14:57:16.339Z,81.39
2023-03-11T14:59:54.653Z,81.42
2023-03-11T15:02:51.579Z,81.47
2023-03-11T15:05:41.830Z,81.37
2023-03-11T15:08:23.922Z,81.25
2023-03-11T15:11:26.202Z,81.13
2023-03-11T15:14:25.800Z,81.05
2023-03-11T15:17:33.820Z,81.02
2023-03-11T15:20:35.044Z,81.03
2023-03-11T15:23:24.610Z,81.09
2023-03-11T15:26:01.464Z,81.19
2023-03-11T15:28:41.451Z,81.29
2023-03-11T15:31:45.054Z,81.28
2023-03-11T15:34:41.376Z,81.31
2023-03-11T15:37:31.299Z,81.30
2023-03-11T15:40:35.265Z,81.33
2023-03-11T15:43:33.875Z,81.33
2023-03-11T15:46:14.113Z,81.39
2023-03-11T15:48:50.665Z,81.41
2023-03-11T15:51:27.464Z,81.47
2023-03-11T15:54:04.287Z,81.50
2023-03-11T15:56:43.424Z,81.48
2023-03-11T15:59:23.683Z,81.52
2023-03-11T16:02:00.887Z,81.58
2023-03-11T16:04:37.593Z,81.62
2023-03-11T16:07:14.140Z,81.64
2023-03-11T16:09:50.682Z,81.70
2023-03-11T16:12:27.977Z,81.73
2023-03-11T16:15:05.190Z,81.82
2023-03-11T16:17:49.660Z,81.90
2023-03-11T16:20:29.798Z,81.94
2023-03-11T16:23:09.037Z,82.12
2023-03-11T16:25:46.480Z,82.16
2023-03-11T16:28:23.075Z,82.25
2023-03-11T16:31:00.043Z,82.33
2023-03-11T16:33:36.883Z,82.53
2023-03-11T16:36:15.188Z,82.66
2023-03-11T16:38:53.728Z,82.85
2023-03-11T16:41:30.568Z,82.96
2023-03-11T16:44:09.613Z,83.01
2023-03-11T16:46:46.498Z,82.99
2023-03-11T16:49:23.116Z,83.23
2023-03-11T16:51:59.770Z,83.22
2023-03-11T16:54:36.455Z,83.20
2023-03-11T16:57:13.569Z,83.32
2023-03-11T16:59:50.285Z,83.20
2023-03-11T17:02:26.785Z,83.26
2023-03-11T17:05:04.726Z,83.32
2023-03-11T17:07:41.980Z,83.28
2023-03-11T17:10:19.580Z,83.31
2023-03-11T17:12:56.484Z,83.31
2023-03-11T17:15:34.771Z,83.33
2023-03-11T17:18:11.864Z,83.17
2023-03-11T17:20:48.387Z,83.18
2023-03-11T17:23:25.150Z,83.21
2023-03-11T17:26:01.872Z,83.19
2023-03-11T17:28:41.174Z,83.06
2023-03-11T17:31:22.122Z,83.03
2023-03-11T17:33:59.266Z,83.02
2023-03-11T17:36:36.143Z,82.96
2023-03-11T17:39:13.004Z,82.91
2023-03-11T17:41:49.801Z,82.89
2023-03-11T17:44:26.565Z,82.81
2023-03-11T17:47:03.214Z,82.75
2023-03-11T17:49:40.229Z,82.73
2023-03-11T17:52:16.775Z,82.69
2023-03-11T17:54:53.838Z,82.67
2023-03-11T17:57:35.401Z,82.67
2023-03-11T18:00:19.475Z,82.58
2023-03-11T18:02:56.153Z,82.63
2023-03-11T18:05:33.041Z,82.62
2023-03-11T18:08:10.370Z,82.43
2023-03-11T18:10:54.642Z,82.30
2023-03-11T18:13:32.277Z,82.24
2023-03-11T18:16:12.962Z,82.12
2023-03-11T18:18:50.192Z,81.97
2023-03-11T18:21:30.155Z,81.87
2023-03-11T18:24:08.114Z,81.79
2023-03-11T18:26:44.625Z,81.78
2023-03-11T18:29:21.080Z,81.81
2023-03-11T18:31:57.939Z,81.86
2023-03-11T18:34:34.594Z,81.94
2023-03-11T18:37:11.680Z,82.02
2023-03-11T18:39:48.533Z,82.06
2023-03-11T18:42:25.520Z,82.08
2023-03-11T18:45:02.354Z,82.07
2023-03-11T18:47:41.657Z,82.07
2023-03-11T18:50:20.206Z,82.12
2023-03-11T18:52:58.097Z,82.13
2023-03-11T18:55:36.933Z,82.07
2023-03-11T18:58:13.692Z,81.98
2023-03-11T19:00:51.363Z,81.92
2023-03-11T19:03:28.403Z,81.86
2023-03-11T19:06:05.814Z,81.82
2023-03-11T19:08:43.703Z,81.77
2023-03-11T19:11:24.164Z,81.74
2023-03-11T19:14:00.780Z,81.71
2023-03-11T19:16:38.061Z,81.69
2023-03-11T19:19:14.854Z,81.73
2023-03-11T19:21:51.508Z,81.76
2023-03-11T19:24:29.926Z,81.76
2023-03-11T19:27:06.563Z,81.72
2023-03-11T19:29:43.208Z,81.70
2023-03-11T19:32:19.883Z,81.78
2023-03-11T19:34:56.652Z,81.84
2023-03-11T19:37:34.584Z,81.88
2023-03-11T19:40:16.566Z,82.05
2023-03-11T19:43:12.349Z,82.30
2023-03-11T19:45:51.818Z,82.47
2023-03-11T19:48:28.498Z,82.54
2023-03-11T19:51:05.918Z,82.54
2023-03-11T19:53:43.197Z,82.61
2023-03-11T19:56:20.059Z,82.79
2023-03-11T19:58:57.484Z,82.82
2023-03-11T20:01:34.191Z,82.82
2023-03-11T20:04:11.451Z,82.92
2023-03-11T20:06:49.236Z,82.92
2023-03-11T20:09:25.816Z,82.90
2023-03-11T20:12:02.565Z,82.80
2023-03-11T20:14:39.112Z,82.79
2023-03-11T20:17:16.028Z,82.72
2023-03-11T20:19:53.010Z,82.60
2023-03-11T20:22:29.723Z,82.47
2023-03-11T20:25:07.134Z,82.33
2023-03-11T20:27:46.219Z,82.20
2023-03-11T20:30:24.386Z,82.14
2023-03-11T20:33:01.004Z,82.05
2023-03-11T20:35:37.875Z,81.99
2023-03-11T20:38:14.824Z,81.95
2023-03-11T20:40:59.925Z,81.89
2023-03-11T20:43:36.972Z,81.81
2023-03-11T20:46:14.457Z,81.80
2023-03-11T20:48:51.214Z,81.80
2023-03-11T20:51:28.522Z,81.78
2023-03-11T20:54:05.554Z,81.78
2023-03-11T20:56:42.562Z,81.76
2023-03-11T20:59:19.975Z,81.75
2023-03-11T21:01:56.771Z,81.75
2023-03-11T21:04:35.600Z,81.79
2023-03-11T21:07:12.949Z,81.82
2023-03-11T21:09:54.654Z,81.85
2023-03-11T21:12:31.499Z,81.81
2023-03-11T21:15:10.461Z,81.85
2023-03-11T21:17:47.324Z,81.98
2023-03-11T21:20:26.837Z,82.18
2023-03-11T21:23:03.517Z,82.15
2023-03-11T21:25:42.810Z,82.12
2023-03-11T21:28:19.354Z,82.16
2023-03-11T21:31:04.204Z,82.23
2023-03-11T21:33:42.222Z,82.27
2023-03-11T21:36:22.155Z,82.25
2023-03-11T21:39:00.977Z,82.30
2023-03-11T21:41:40.148Z,82.45
2023-03-11T21:44:16.829Z,82.55
2023-03-11T21:46:53.595Z,82.63
2023-03-11T21:49:31.391Z,82.63
2023-03-11T21:52:08.435Z,82.70
2023-03-11T21:54:45.140Z,82.69
2023-03-11T21:57:21.999Z,82.70
2023-03-11T21:59:59.159Z,82.74
2023-03-11T22:02:36.015Z,82.77
2023-03-11T22:05:14.868Z,82.78
2023-03-11T22:07:51.563Z,82.73
2023-03-11T22:10:28.267Z,82.80
2023-03-11T22:13:05.778Z,82.86
2023-03-11T22:15:42.481Z,82.97
2023-03-11T22:18:20.253Z,83.00
2023-03-11T22:21:03.678Z,83.13
2023-03-11T22:23:44.172Z,83.15
2023-03-11T22:26:22.872Z,83.23
2023-03-11T22:29:03.978Z,83.22
2023-03-11T22:31:42.772Z,83.33
2023-03-11T22:34:19.806Z,83.32
2023-03-11T22:36:56.259Z,83.35
2023-03-11T22:39:32.729Z,83.15
2023-03-11T22:42:10.236Z,83.12
2023-03-11T22:44:50.602Z,83.12
2023-03-11T22:47:27.163Z,83.10
2023-03-11T22:50:03.572Z,83.12
2023-03-11T22:52:39.899Z,83.14
2023-03-11T22:55:16.653Z,83.11
2023-03-11T22:57:53.142Z,83.21
2023-03-11T23:00:29.748Z,83.18
2023-03-11T23:03:07.224Z,83.14
2023-03-11T23:05:46.129Z,83.07
2023-03-11T23:08:23.646Z,83.09
2023-03-11T23:11:04.789Z,83.06
2023-03-11T23:13:42.846Z,83.03
2023-03-11T23:16:23.002Z,82.96
2023-03-11T23:19:02.124Z,82.85
2023-03-11T23:21:40.082Z,82.79
2023-03-11T23:24:16.385Z,82.72
2023-03-11T23:26:52.917Z,82.64
2023-03-11T23:29:29.180Z,82.54
2023-03-11T23:32:06.981Z,82.47
2023-03-11T23:34:44.063Z,82.40
2023-03-11T23:37:20.537Z,82.34
2023-03-11T23:39:57.006Z,82.27
2023-03-11T23:42:35.482Z,82.21
2023-03-11T23:45:14.329Z,82.13
2023-03-11T23:47:50.921Z,82.10
2023-03-11T23:50:27.477Z,82.06
2023-03-11T23:53:04.037Z,82.02
2023-03-11T23:55:42.611Z,82.00
2023-03-11T23:58:19.031Z,81.99
